createdAt,value
2022-07-29T00:01:53.488Z,11.40
2022-07-29T00:04:21.490Z,11.38
2022-07-29T00:06:49.101Z,11.35
2022-07-29T00:09:15.994Z,11.30
2022-07-29T00:11:42.996Z,11.23
2022-07-29T00:14:10.010Z,11.18
2022-07-29T00:16:37.319Z,11.14
2022-07-29T00:19:04.623Z,11.12
2022-07-29T00:21:31.669Z,11.09
2022-07-29T00:23:58.672Z,11.05
2022-07-29T00:26:26.246Z,11.02
2022-07-29T00:29:06.399Z,11.00
2022-07-29T00:31:40.183Z,11.00
2022-07-29T00:34:27.042Z,10.97
2022-07-29T00:36:54.063Z,10.95
2022-07-29T00:39:20.981Z,10.94
2022-07-29T00:41:48.210Z,10.89
2022-07-29T00:44:15.488Z,10.88
2022-07-29T00:46:42.899Z,10.88
2022-07-29T00:49:09.895Z,10.86
2022-07-29T00:51:38.601Z,10.83
2022-07-29T00:54:06.499Z,10.80
2022-07-29T00:56:34.114Z,10.79
2022-07-29T00:59:01.475Z,10.77
2022-07-29T01:01:29.558Z,10.73
2022-07-29T01:03:56.796Z,10.72
2022-07-29T01:06:24.402Z,10.71
2022-07-29T01:08:51.793Z,10.69
2022-07-29T01:11:19.109Z,10.67
2022-07-29T01:13:47.212Z,10.68
2022-07-29T01:16:23.925Z,10.67
2022-07-29T01:18:51.781Z,10.69
2022-07-29T01:21:43.678Z,10.69
2022-07-29T01:24:48.234Z,10.71
2022-07-29T01:27:33.557Z,10.73
2022-07-29T01:30:04.483Z,10.76
2022-07-29T01:32:38.470Z,10.77
2022-07-29T01:35:21.730Z,10.79
2022-07-29T01:37:51.850Z,10.78
2022-07-29T01:40:32.411Z,10.75
2022-07-29T01:43:01.518Z,10.69
2022-07-29T01:45:58.947Z,10.66
2022-07-29T01:48:42.138Z,10.64
2022-07-29T01:51:16.310Z,10.64
2022-07-29T01:53:47.589Z,10.62
2022-07-29T01:56:15.754Z,10.56
2022-07-29T01:58:44.583Z,10.50
2022-07-29T02:01:12.730Z,10.48
2022-07-29T02:03:40.802Z,10.46
2022-07-29T02:06:09.218Z,10.43
2022-07-29T02:08:38.258Z,10.41
2022-07-29T02:11:05.678Z,10.41
2022-07-29T02:13:33.245Z,10.39
2022-07-29T02:16:01.383Z,10.36
2022-07-29T02:18:29.434Z,10.36
2022-07-29T02:20:57.155Z,10.35
2022-07-29T02:23:25.311Z,10.32
2022-07-29T02:25:57.694Z,10.28
2022-07-29T02:28:29.869Z,10.29
2022-07-29T02:31:01.071Z,10.24
2022-07-29T02:33:29.102Z,10.23
2022-07-29T02:35:56.133Z,10.20
2022-07-29T02:38:42.340Z,10.18
2022-07-29T02:41:12.478Z,10.16
2022-07-29T02:43:40.919Z,10.15
2022-07-29T02:46:27.985Z,10.11
2022-07-29T02:49:10.737Z,10.08
2022-07-29T02:51:55.631Z,10.05
2022-07-29T02:54:56.370Z,10.07
2022-07-29T02:57:27.857Z,10.09
2022-07-29T02:59:57.568Z,10.09
2022-07-29T03:02:25.182Z,10.10
2022-07-29T03:04:52.713Z,10.08
2022-07-29T03:07:21.581Z,10.10
2022-07-29T03:09:48.609Z,10.11
2022-07-29T03:12:15.905Z,10.11
2022-07-29T03:14:44.610Z,10.11
2022-07-29T03:17:11.863Z,10.12
2022-07-29T03:19:40.233Z,10.11
2022-07-29T03:22:07.790Z,10.11
2022-07-29T03:24:37.087Z,10.19
2022-07-29T03:27:04.882Z,10.30
2022-07-29T03:29:34.380Z,10.40
2022-07-29T03:32:07.397Z,10.58
2022-07-29T03:34:36.311Z,10.77
2022-07-29T03:37:03.253Z,11.59
2022-07-29T03:39:33.845Z,12.36
2022-07-29T03:42:01.920Z,12.45
2022-07-29T03:44:29.141Z,13.08
2022-07-29T03:46:57.406Z,13.87
2022-07-29T03:49:25.129Z,13.95
2022-07-29T03:51:52.184Z,13.93
2022-07-29T03:54:19.785Z,13.97
2022-07-29T03:56:48.583Z,14.57
2022-07-29T03:59:16.829Z,14.67
2022-07-29T04:01:44.615Z,14.35
2022-07-29T04:04:11.660Z,14.03
2022-07-29T04:06:46.482Z,13.70
2022-07-29T04:09:15.713Z,13.59
2022-07-29T04:12:02.712Z,13.55
2022-07-29T04:14:32.187Z,13.49
2022-07-29T04:16:59.453Z,13.46
2022-07-29T04:19:26.404Z,13.47
2022-07-29T04:21:53.387Z,13.53
2022-07-29T04:24:20.835Z,13.92
2022-07-29T04:26:48.314Z,15.20
2022-07-29T04:29:15.677Z,15.64
2022-07-29T04:31:43.693Z,15.37
2022-07-29T04:34:11.503Z,15.92
2022-07-29T04:36:38.479Z,16.24
2022-07-29T04:39:05.627Z,15.89
2022-07-29T04:41:33.686Z,15.40
2022-07-29T04:44:07.186Z,15.09
2022-07-29T04:46:35.132Z,14.95
2022-07-29T04:49:03.668Z,14.90
2022-07-29T04:51:31.000Z,14.80
2022-07-29T04:53:58.100Z,14.70
2022-07-29T04:56:25.276Z,14.70
2022-07-29T04:58:52.469Z,14.70
2022-07-29T05:01:19.985Z,14.71
2022-07-29T05:03:49.851Z,14.77
2022-07-29T05:06:17.740Z,14.82
2022-07-29T05:08:46.370Z,14.92
2022-07-29T05:11:18.111Z,15.16
2022-07-29T05:13:51.747Z,15.39
2022-07-29T05:16:18.929Z,15.48
2022-07-29T05:18:46.304Z,15.52
2022-07-29T05:21:13.244Z,15.57
2022-07-29T05:23:40.152Z,15.60
2022-07-29T05:26:07.239Z,15.64
2022-07-29T05:28:35.942Z,15.93
2022-07-29T05:31:03.139Z,16.14
2022-07-29T05:33:34.903Z,16.13
2022-07-29T05:36:08.228Z,16.15
2022-07-29T05:38:36.641Z,16.24
2022-07-29T05:41:04.688Z,16.30
2022-07-29T05:43:31.676Z,16.33
2022-07-29T05:45:59.004Z,16.32
2022-07-29T05:48:26.418Z,15.91
2022-07-29T05:50:53.454Z,16.03
2022-07-29T05:53:21.090Z,16.25
2022-07-29T05:55:52.776Z,16.49
2022-07-29T05:58:19.884Z,16.75
2022-07-29T06:00:46.989Z,17.18
2022-07-29T06:03:14.047Z,17.58
2022-07-29T06:05:41.008Z,18.01
2022-07-29T06:08:08.436Z,18.38
2022-07-29T06:10:38.366Z,18.63
2022-07-29T06:13:05.309Z,18.69
2022-07-29T06:15:32.291Z,18.90
2022-07-29T06:18:01.249Z,19.05
2022-07-29T06:20:31.545Z,19.06
2022-07-29T06:22:59.796Z,19.22
2022-07-29T06:25:27.489Z,19.58
2022-07-29T06:27:54.448Z,19.37
2022-07-29T06:30:21.433Z,19.57
2022-07-29T06:32:48.482Z,19.95
2022-07-29T06:35:38.424Z,20.19
2022-07-29T06:38:03.810Z,20.46
2022-07-29T06:41:09.179Z,20.84
2022-07-29T06:43:52.542Z,21.09
2022-07-29T06:46:23.311Z,20.86
2022-07-29T06:48:50.946Z,20.86
2022-07-29T06:51:22.265Z,20.78
2022-07-29T06:53:59.979Z,20.84
2022-07-29T06:56:38.256Z,20.82
2022-07-29T06:59:10.778Z,21.00
2022-07-29T07:01:39.833Z,20.96
2022-07-29T07:04:07.044Z,20.88
2022-07-29T07:06:34.113Z,20.91
2022-07-29T07:09:01.125Z,21.15
2022-07-29T07:11:28.611Z,20.96
2022-07-29T07:14:00.628Z,20.13
2022-07-29T07:16:30.157Z,20.08
2022-07-29T07:18:57.226Z,20.38
2022-07-29T07:21:24.246Z,20.65
2022-07-29T07:23:51.192Z,20.87
2022-07-29T07:26:18.177Z,20.83
2022-07-29T07:28:45.158Z,20.76
2022-07-29T07:31:13.118Z,20.81
2022-07-29T07:33:40.659Z,21.06
2022-07-29T07:36:07.671Z,21.07
2022-07-29T07:38:35.009Z,20.70
2022-07-29T07:41:02.365Z,20.35
2022-07-29T07:43:29.556Z,19.90
2022-07-29T07:45:56.602Z,19.92
2022-07-29T07:48:23.825Z,19.96
2022-07-29T07:50:51.645Z,19.64
2022-07-29T07:53:18.887Z,19.96
2022-07-29T07:58:33.226Z,20.53
2022-07-29T08:01:00.287Z,20.72
2022-07-29T08:03:27.386Z,21.13
2022-07-29T08:05:55.363Z,21.49
2022-07-29T08:08:22.373Z,21.57
2022-07-29T08:10:58.558Z,21.68
2022-07-29T08:13:31.384Z,21.73
2022-07-29T08:16:00.610Z,22.00
2022-07-29T08:18:31.985Z,22.22
2022-07-29T08:21:00.150Z,22.45
2022-07-29T08:23:31.595Z,22.65
2022-07-29T08:26:13.915Z,22.83
2022-07-29T08:28:42.909Z,22.99
2022-07-29T08:31:09.940Z,23.14
2022-07-29T08:33:36.987Z,22.67
2022-07-29T08:36:04.510Z,23.12
2022-07-29T08:38:31.621Z,23.22
2022-07-29T08:40:59.745Z,23.20
2022-07-29T08:43:26.899Z,23.28
2022-07-29T08:45:54.039Z,22.41
2022-07-29T08:48:23.567Z,22.20
2022-07-29T08:50:59.782Z,22.68
2022-07-29T08:53:28.300Z,22.98
2022-07-29T08:55:55.942Z,23.18
2022-07-29T08:58:25.055Z,23.38
2022-07-29T09:00:55.457Z,23.41
2022-07-29T09:03:25.718Z,23.41
2022-07-29T09:05:53.010Z,23.67
2022-07-29T09:08:21.152Z,23.95
2022-07-29T09:10:48.486Z,23.83
2022-07-29T09:13:15.498Z,24.09
2022-07-29T09:15:42.657Z,23.99
2022-07-29T09:18:19.617Z,24.06
2022-07-29T09:21:15.060Z,23.95
2022-07-29T09:23:43.526Z,23.45
2022-07-29T09:26:10.506Z,22.08
2022-07-29T09:28:43.152Z,21.21
2022-07-29T09:31:10.282Z,21.07
2022-07-29T09:33:40.390Z,20.88
2022-07-29T09:36:09.067Z,21.38
2022-07-29T09:38:38.067Z,20.91
2022-07-29T09:41:06.813Z,21.18
2022-07-29T09:43:34.957Z,20.90
2022-07-29T09:46:14.899Z,20.36
2022-07-29T09:48:42.084Z,20.41
2022-07-29T09:51:26.880Z,20.14
2022-07-29T09:53:57.108Z,20.75
2022-07-29T09:56:43.176Z,21.25
2022-07-29T09:59:12.190Z,21.51
2022-07-29T10:01:39.260Z,21.40
2022-07-29T10:04:06.493Z,21.04
2022-07-29T10:06:33.583Z,20.71
2022-07-29T10:09:12.649Z,20.49
2022-07-29T10:11:48.154Z,21.06
2022-07-29T10:14:17.602Z,21.64
2022-07-29T10:16:44.721Z,21.92
2022-07-29T10:19:11.888Z,22.04
2022-07-29T10:21:40.835Z,21.62
2022-07-29T10:24:07.846Z,21.32
2022-07-29T10:26:42.988Z,21.32
2022-07-29T10:29:10.650Z,20.87
2022-07-29T10:31:58.953Z,20.78
2022-07-29T10:34:38.477Z,21.07
2022-07-29T10:37:19.562Z,20.83
2022-07-29T10:40:51.137Z,20.84
2022-07-29T10:43:24.344Z,20.96
2022-07-29T10:45:57.852Z,21.22
2022-07-29T10:48:25.078Z,20.93
2022-07-29T10:50:56.378Z,21.32
2022-07-29T10:53:24.755Z,20.99
2022-07-29T10:55:53.758Z,21.03
2022-07-29T10:58:24.681Z,21.10
2022-07-29T11:00:53.318Z,21.05
2022-07-29T11:03:49.803Z,21.22
2022-07-29T11:06:26.284Z,20.92
2022-07-29T11:09:18.127Z,21.07
2022-07-29T11:11:51.587Z,21.50
2022-07-29T11:14:20.246Z,21.29
2022-07-29T11:17:03.153Z,21.26
2022-07-29T11:19:33.837Z,21.27
2022-07-29T11:22:02.539Z,20.94
2022-07-29T11:24:35.337Z,21.37
2022-07-29T11:27:18.217Z,21.42
2022-07-29T11:29:56.058Z,21.56
2022-07-29T11:32:25.168Z,21.45
2022-07-29T11:35:37.239Z,21.37
2022-07-29T11:38:31.906Z,21.34
2022-07-29T11:41:25.522Z,21.16
2022-07-29T11:43:58.527Z,20.99
2022-07-29T11:46:50.022Z,21.16
2022-07-29T11:49:32.275Z,21.45
2022-07-29T11:52:04.280Z,21.14
2022-07-29T11:54:57.562Z,21.41
2022-07-29T11:57:21.914Z,21.43
2022-07-29T11:59:49.270Z,21.26
2022-07-29T12:02:36.960Z,21.06
2022-07-29T12:05:10.684Z,21.17
2022-07-29T12:07:41.186Z,20.86
2022-07-29T12:10:29.594Z,21.06
2022-07-29T12:12:57.126Z,21.09
2022-07-29T12:15:46.125Z,21.20
2022-07-29T12:18:18.207Z,21.21
2022-07-29T12:20:46.167Z,21.33
2022-07-29T12:23:13.967Z,21.22
2022-07-29T12:25:44.875Z,21.70
2022-07-29T12:28:26.640Z,21.77
2022-07-29T12:30:54.158Z,21.78
2022-07-29T12:33:25.380Z,21.63
2022-07-29T12:36:06.319Z,21.54
2022-07-29T12:38:38.467Z,21.17
2022-07-29T12:41:05.586Z,21.33
2022-07-29T12:43:33.850Z,20.93
2022-07-29T12:46:16.110Z,20.80
2022-07-29T12:48:44.728Z,20.83
2022-07-29T12:51:13.374Z,21.11
2022-07-29T12:53:40.448Z,21.29
2022-07-29T12:56:26.696Z,21.28
2022-07-29T12:58:55.020Z,21.19
2022-07-29T13:01:22.336Z,21.01
2022-07-29T13:03:59.794Z,21.10
2022-07-29T13:06:42.077Z,20.93
2022-07-29T13:09:18.526Z,20.94
2022-07-29T13:11:51.747Z,20.92
2022-07-29T13:14:38.358Z,20.77
2022-07-29T13:17:14.447Z,20.43
2022-07-29T13:19:49.534Z,20.11
2022-07-29T13:22:23.740Z,19.98
2022-07-29T13:24:58.824Z,19.89
2022-07-29T13:27:28.377Z,19.94
2022-07-29T13:29:58.323Z,19.93
2022-07-29T13:32:28.807Z,19.82
2022-07-29T13:35:05.467Z,19.73
2022-07-29T13:37:35.334Z,19.76
2022-07-29T13:40:04.456Z,19.82
2022-07-29T13:42:33.109Z,19.75
2022-07-29T13:45:01.070Z,20.03
2022-07-29T13:47:32.849Z,20.13
2022-07-29T13:50:01.922Z,20.00
2022-07-29T13:52:29.550Z,20.23
2022-07-29T13:54:57.129Z,20.10
2022-07-29T13:57:24.284Z,20.16
2022-07-29T13:59:54.371Z,20.35
2022-07-29T14:02:25.609Z,20.45
2022-07-29T14:04:54.665Z,20.79
2022-07-29T14:07:22.784Z,20.58
2022-07-29T14:09:49.867Z,20.59
2022-07-29T14:12:16.887Z,20.28
2022-07-29T14:14:43.858Z,20.16
2022-07-29T14:17:10.989Z,20.08
2022-07-29T14:19:39.223Z,20.18
2022-07-29T14:22:07.697Z,19.93
2022-07-29T14:24:39.055Z,19.94
2022-07-29T14:27:07.025Z,20.04
2022-07-29T14:29:37.201Z,20.05
2022-07-29T14:32:10.153Z,19.97
2022-07-29T14:34:37.527Z,19.95
2022-07-29T14:37:06.731Z,19.98
2022-07-29T14:39:42.130Z,19.86
2022-07-29T14:42:14.142Z,20.05
2022-07-29T14:44:42.699Z,19.82
2022-07-29T14:47:10.029Z,20.06
2022-07-29T14:49:37.061Z,20.07
2022-07-29T14:52:04.406Z,20.04
2022-07-29T14:54:31.365Z,20.04
2022-07-29T14:56:58.869Z,19.91
2022-07-29T14:59:26.940Z,19.68
2022-07-29T15:01:54.061Z,19.56
2022-07-29T15:04:21.240Z,19.40
2022-07-29T15:06:48.473Z,19.26
2022-07-29T15:09:15.465Z,19.21
2022-07-29T15:11:42.448Z,19.26
2022-07-29T15:14:09.433Z,19.18
2022-07-29T15:16:37.929Z,19.36
2022-07-29T15:19:05.765Z,19.53
2022-07-29T15:21:33.114Z,19.48
2022-07-29T15:24:00.087Z,19.55
2022-07-29T15:26:27.064Z,19.56
2022-07-29T15:28:54.154Z,19.41
2022-07-29T15:31:21.096Z,19.44
2022-07-29T15:33:48.714Z,19.31
2022-07-29T15:36:42.162Z,19.24
2022-07-29T15:39:02.869Z,19.42
2022-07-29T15:41:29.808Z,19.36
2022-07-29T15:43:56.827Z,19.40
2022-07-29T15:46:42.262Z,19.27
2022-07-29T15:49:09.446Z,19.27
2022-07-29T15:51:36.503Z,19.08
2022-07-29T15:54:04.962Z,19.00
2022-07-29T15:56:32.114Z,18.80
2022-07-29T15:58:59.377Z,18.83
2022-07-29T16:01:28.149Z,18.86
2022-07-29T16:03:55.430Z,19.01
2022-07-29T16:06:22.469Z,18.93
2022-07-29T16:08:49.410Z,18.71
2022-07-29T16:11:16.403Z,18.68
2022-07-29T16:13:43.602Z,18.72
2022-07-29T16:16:10.918Z,18.56
2022-07-29T16:18:37.912Z,18.48
2022-07-29T16:21:04.942Z,18.50
2022-07-29T16:23:32.288Z,18.34
2022-07-29T16:26:00.825Z,18.09
2022-07-29T16:28:29.334Z,17.99
2022-07-29T16:30:57.253Z,17.87
2022-07-29T16:33:24.684Z,17.90
2022-07-29T16:35:52.231Z,17.88
2022-07-29T16:38:19.366Z,17.87
2022-07-29T16:40:46.322Z,17.91
2022-07-29T16:43:13.401Z,17.93
2022-07-29T16:45:46.136Z,17.84
2022-07-29T16:48:18.030Z,17.84
2022-07-29T16:50:46.082Z,17.78
2022-07-29T16:53:13.268Z,17.82
2022-07-29T16:55:42.090Z,17.85
2022-07-29T16:58:10.454Z,17.98
2022-07-29T17:00:37.760Z,17.91
2022-07-29T17:03:05.701Z,17.91
2022-07-29T17:05:52.511Z,17.98
2022-07-29T17:08:20.194Z,17.94
2022-07-29T17:10:47.585Z,17.82
2022-07-29T17:13:14.928Z,17.71
2022-07-29T17:15:44.789Z,17.71
2022-07-29T17:18:12.720Z,17.73
2022-07-29T17:20:41.937Z,17.73
2022-07-29T17:23:09.162Z,17.71
2022-07-29T17:25:36.407Z,17.65
2022-07-29T17:28:03.644Z,17.61
2022-07-29T17:30:30.593Z,17.66
2022-07-29T17:32:57.661Z,17.52
2022-07-29T17:35:43.027Z,17.54
2022-07-29T17:38:10.368Z,17.43
2022-07-29T17:40:37.555Z,17.32
2022-07-29T17:43:05.248Z,17.23
2022-07-29T17:45:48.983Z,17.19
2022-07-29T17:48:18.162Z,17.15
2022-07-29T17:50:45.607Z,17.00
2022-07-29T17:53:15.677Z,17.02
2022-07-29T17:55:48.924Z,16.97
2022-07-29T17:58:16.540Z,16.97
2022-07-29T18:00:43.806Z,16.87
2022-07-29T18:03:11.225Z,16.81
2022-07-29T18:05:38.204Z,16.76
2022-07-29T18:08:05.612Z,16.73
2022-07-29T18:10:33.448Z,16.60
2022-07-29T18:13:00.941Z,16.61
2022-07-29T18:15:28.108Z,16.54
2022-07-29T18:17:57.669Z,16.49
2022-07-29T18:20:28.452Z,16.42
2022-07-29T18:22:55.463Z,16.41
2022-07-29T18:25:22.690Z,16.41
2022-07-29T18:27:50.312Z,16.33
2022-07-29T18:30:17.457Z,16.33
2022-07-29T18:32:59.115Z,16.33
2022-07-29T18:35:32.619Z,16.25
2022-07-29T18:38:01.948Z,16.22
2022-07-29T18:40:30.460Z,16.09
2022-07-29T18:42:57.790Z,16.09
2022-07-29T18:45:28.495Z,15.94
2022-07-29T18:47:56.871Z,15.97
2022-07-29T18:50:28.972Z,15.89
2022-07-29T18:52:58.905Z,15.83
2022-07-29T18:55:26.828Z,15.75
2022-07-29T18:57:56.675Z,15.72
2022-07-29T19:00:25.350Z,15.72
2022-07-29T19:02:53.061Z,15.66
2022-07-29T19:05:21.121Z,15.60
2022-07-29T19:07:48.163Z,15.53
2022-07-29T19:10:15.284Z,15.45
2022-07-29T19:12:42.506Z,15.48
2022-07-29T19:15:10.687Z,15.50
2022-07-29T19:17:38.833Z,15.48
2022-07-29T19:20:07.389Z,15.47
2022-07-29T19:22:34.721Z,15.43
2022-07-29T19:25:01.879Z,15.39
2022-07-29T19:27:28.879Z,15.29
2022-07-29T19:29:59.134Z,15.27
2022-07-29T19:32:26.995Z,15.22
2022-07-29T19:35:12.891Z,15.18
2022-07-29T19:37:40.073Z,15.17
2022-07-29T19:40:07.813Z,15.15
2022-07-29T19:42:34.930Z,15.16
2022-07-29T19:45:01.963Z,15.14
2022-07-29T19:47:29.168Z,15.06
2022-07-29T19:49:56.280Z,15.01
2022-07-29T19:52:23.333Z,14.99
2022-07-29T19:54:50.635Z,14.96
2022-07-29T19:57:17.647Z,14.92
2022-07-29T19:59:45.006Z,14.89
2022-07-29T20:02:12.934Z,14.83
2022-07-29T20:04:40.333Z,14.82
2022-07-29T20:07:07.351Z,14.78
2022-07-29T20:09:34.974Z,14.75
2022-07-29T20:12:04.989Z,14.72
2022-07-29T20:14:32.199Z,14.67
2022-07-29T20:16:59.542Z,14.61
2022-07-29T20:19:27.807Z,14.57
2022-07-29T20:21:56.456Z,14.54
2022-07-29T20:24:23.892Z,14.53
2022-07-29T20:26:51.571Z,14.40
2022-07-29T20:29:18.609Z,14.29
2022-07-29T20:31:53.290Z,14.19
2022-07-29T20:34:24.148Z,14.11
2022-07-29T20:36:51.231Z,14.06
2022-07-29T20:39:18.843Z,14.03
2022-07-29T20:41:46.394Z,13.99
2022-07-29T20:44:15.030Z,13.88
2022-07-29T20:46:43.241Z,13.83
2022-07-29T20:49:10.711Z,13.75
2022-07-29T20:51:43.547Z,13.69
2022-07-29T20:54:11.912Z,13.60
2022-07-29T20:56:39.626Z,13.54
2022-07-29T20:59:06.705Z,13.50
2022-07-29T21:01:33.916Z,13.47
2022-07-29T21:04:01.678Z,13.46
2022-07-29T21:06:29.380Z,13.39
2022-07-29T21:08:58.020Z,13.33
2022-07-29T21:11:44.309Z,13.30
2022-07-29T21:14:42.211Z,13.27
2022-07-29T21:17:10.285Z,13.13
2022-07-29T21:19:37.300Z,13.06
2022-07-29T21:22:04.530Z,13.00
2022-07-29T21:24:33.284Z,13.00
2022-07-29T21:27:21.336Z,12.97
2022-07-29T21:29:48.984Z,12.96
2022-07-29T21:32:27.332Z,12.93
2022-07-29T21:34:57.820Z,12.94
2022-07-29T21:37:24.854Z,12.94
2022-07-29T21:39:52.076Z,12.94
2022-07-29T21:42:19.339Z,12.89
2022-07-29T21:44:46.493Z,12.88
2022-07-29T21:47:13.462Z,12.86
2022-07-29T21:49:40.423Z,12.80
2022-07-29T21:52:08.140Z,12.77
2022-07-29T21:54:35.998Z,12.70
2022-07-29T21:57:03.691Z,12.69
2022-07-29T21:59:31.909Z,12.68
2022-07-29T22:02:01.122Z,12.70
2022-07-29T22:04:31.817Z,12.68
2022-07-29T22:06:59.430Z,12.63
2022-07-29T22:09:26.650Z,12.54
2022-07-29T22:11:54.570Z,12.52
2022-07-29T22:14:22.274Z,12.45
2022-07-29T22:16:49.445Z,12.33
2022-07-29T22:19:16.633Z,12.34
2022-07-29T22:21:43.730Z,12.33
2022-07-29T22:24:11.326Z,12.36
2022-07-29T22:26:38.589Z,12.33
2022-07-29T22:29:06.616Z,12.35
2022-07-29T22:31:33.733Z,12.31
2022-07-29T22:34:00.749Z,12.21
2022-07-29T22:36:27.688Z,12.21
2022-07-29T22:38:54.912Z,12.16
2022-07-29T22:41:22.049Z,12.11
2022-07-29T22:43:49.042Z,12.04
2022-07-29T22:46:16.085Z,11.98
2022-07-29T22:48:43.154Z,11.95
2022-07-29T22:51:10.209Z,11.91
2022-07-29T22:53:37.159Z,11.93
2022-07-29T22:56:04.613Z,11.91
2022-07-29T22:58:31.531Z,11.86
2022-07-29T23:00:58.864Z,11.84
2022-07-29T23:03:25.910Z,11.83
2022-07-29T23:05:53.025Z,11.81
2022-07-29T23:08:20.100Z,11.79
2022-07-29T23:10:47.703Z,11.75
2022-07-29T23:13:14.770Z,11.69
2022-07-29T23:15:42.081Z,11.65
2022-07-29T23:18:09.279Z,11.63
2022-07-29T23:20:36.433Z,11.63
2022-07-29T23:23:04.197Z,11.66
2022-07-29T23:25:31.466Z,11.70
2022-07-29T23:27:58.545Z,11.71
2022-07-29T23:30:25.646Z,11.73
2022-07-29T23:32:53.321Z,11.76
2022-07-29T23:35:20.460Z,11.79
2022-07-29T23:37:48.141Z,11.73
2022-07-29T23:40:15.442Z,11.71
2022-07-29T23:42:43.017Z,11.71
2022-07-29T23:45:11.401Z,11.70
2022-07-29T23:47:38.492Z,11.66
2022-07-29T23:50:07.178Z,11.65
2022-07-29T23:52:34.161Z,11.66
2022-07-29T23:55:36.479Z,11.71
2022-07-29T23:57:50.484Z,11.73
